Time;durP1;ratioP1;P1;durP2;ratioP2;P2;SDS_P1;SDS_P2;PMS_P1;PMS_P2;Temp;Humidity;BMP_temperature;BMP_pressure;BME280_temperature;BME280_humidity;BME280_pressure;Samples;Min_cycle;Max_cycle;Signal;HPM_P1;HPM_P2
2021/05/13 00:01:24;;;;;;;4.73;4.27;;;9.70;99.90;;;;;;5015848;28;20209;-87
2021/05/13 00:03:52;;;;;;;5.07;4.57;;;9.70;99.90;;;;;;5013754;28;20690;-87
2021/05/13 00:06:18;;;;;;;5.90;4.83;;;9.60;99.90;;;;;;5024370;28;20274;-87
2021/05/13 00:08:44;;;;;;;4.57;4.13;;;9.50;99.90;;;;;;5010383;28;20264;-87
2021/05/13 00:11:12;;;;;;;5.40;4.90;;;9.50;99.90;;;;;;5015163;28;20232;-87
2021/05/13 00:13:39;;;;;;;7.00;4.43;;;9.50;99.90;;;;;;5016809;28;20208;-87
2021/05/13 00:16:06;;;;;;;4.87;4.47;;;9.30;99.90;;;;;;5014204;28;20199;-87
2021/05/13 00:18:32;;;;;;;6.90;4.67;;;9.50;99.90;;;;;;5013886;28;20190;-85
2021/05/13 00:20:59;;;;;;;4.97;4.47;;;9.40;99.90;;;;;;5034698;28;21255;-85
2021/05/13 00:23:25;;;;;;;5.13;4.60;;;9.40;99.90;;;;;;5017950;28;20709;-86
2021/05/13 00:25:52;;;;;;;4.83;4.37;;;9.30;99.90;;;;;;5022390;28;20183;-86
2021/05/13 00:28:24;;;;;;;4.43;4.03;;;9.20;99.90;;;;;;5011258;28;20213;-86
2021/05/13 00:30:49;;;;;;;7.47;4.67;;;9.20;99.90;;;;;;5012642;28;20203;-86
2021/05/13 00:33:16;;;;;;;5.70;4.67;;;9.20;99.90;;;;;;5022791;28;20671;-86
2021/05/13 00:35:42;;;;;;;5.13;4.30;;;9.10;99.90;;;;;;5028661;28;20215;-85
2021/05/13 00:38:08;;;;;;;4.53;4.13;;;9.20;99.90;;;;;;5020986;28;20187;-85
2021/05/13 00:40:34;;;;;;;4.63;3.90;;;9.20;99.90;;;;;;5021051;28;20192;-85
2021/05/13 00:43:01;;;;;;;6.87;4.10;;;9.30;99.90;;;;;;5020089;28;20196;-86
2021/05/13 00:45:28;;;;;;;5.63;4.73;;;9.10;99.90;;;;;;5020770;28;20201;-85
2021/05/13 00:50:19;;;;;;;5.13;3.97;;;9.00;99.90;;;;;;5039590;28;20268;-86
2021/05/13 00:52:46;;;;;;;5.50;4.53;;;9.00;99.90;;;;;;5026561;28;20205;-85
2021/05/13 00:55:13;;;;;;;4.50;4.10;;;9.00;99.90;;;;;;5023202;28;20605;-86
2021/05/13 00:57:42;;;;;;;6.73;5.23;;;8.90;99.90;;;;;;5020488;28;20928;-85
2021/05/13 01:00:30;;;;;;;4.37;3.53;;;8.90;99.90;;;;;;5019749;28;20211;-86
2021/05/13 01:02:55;;;;;;;4.77;4.27;;;8.90;99.90;;;;;;5038571;28;20192;-86
2021/05/13 01:05:21;;;;;;;4.33;3.93;;;8.80;99.90;;;;;;5039226;28;20187;-86
2021/05/13 01:07:47;;;;;;;4.63;4.23;;;8.80;99.90;;;;;;5017724;28;20227;-86
2021/05/13 01:10:13;;;;;;;9.50;4.77;;;8.80;99.90;;;;;;5021170;28;20194;-86
2021/05/13 01:12:43;;;;;;;4.73;4.23;;;9.10;99.90;;;;;;5012400;28;20191;-85
2021/05/13 01:15:23;;;;;;;4.77;4.00;;;8.80;99.90;;;;;;5019821;28;20219;-85
2021/05/13 01:18:04;;;;;;;5.77;4.23;;;8.80;99.90;;;;;;5019958;28;20185;-86
2021/05/13 01:20:31;;;;;;;5.10;4.53;;;8.80;99.90;;;;;;5013283;28;20186;-86
2021/05/13 01:22:58;;;;;;;7.97;4.83;;;8.70;99.90;;;;;;5011769;28;20202;-86
2021/05/13 01:25:24;;;;;;;6.20;4.37;;;8.70;99.90;;;;;;5013226;28;20184;-87
2021/05/13 01:27:56;;;;;;;5.00;4.50;;;8.60;99.90;;;;;;5017110;28;20232;-86
2021/05/13 01:30:22;;;;;;;5.57;4.83;;;8.60;99.90;;;;;;5018470;28;20276;-86
2021/05/13 01:32:48;;;;;;;4.97;4.50;;;8.60;99.90;;;;;;5015354;28;20232;-86
2021/05/13 01:35:13;;;;;;;5.47;4.93;;;8.50;99.90;;;;;;5019727;28;20191;-86
2021/05/13 01:37:39;;;;;;;6.30;5.23;;;8.50;99.90;;;;;;5019430;28;20262;-86
2021/05/13 01:40:05;;;;;;;4.63;4.20;;;8.50;99.90;;;;;;5009020;28;20205;-85
2021/05/13 01:42:31;;;;;;;5.50;4.83;;;;;;;;;;5021967;28;20251;-86
2021/05/13 01:44:57;;;;;;;6.10;5.30;;;8.40;99.90;;;;;;5018786;28;20211;-86
2021/05/13 01:47:23;;;;;;;4.43;3.77;;;8.50;99.90;;;;;;5018874;28;20214;-85
2021/05/13 01:49:49;;;;;;;6.67;4.70;;;8.40;99.90;;;;;;5021687;28;20804;-86
2021/05/13 01:52:15;;;;;;;4.37;3.97;;;8.40;99.90;;;;;;5016444;28;20198;-86
2021/05/13 01:54:41;;;;;;;4.50;4.07;;;8.50;99.90;;;;;;5021514;28;20369;-87
2021/05/13 01:57:09;;;;;;;4.77;3.97;;;8.40;99.90;;;;;;5019769;28;20184;-86
2021/05/13 01:59:38;;;;;;;4.43;4.03;;;8.40;99.90;;;;;;5015453;28;20626;-86
2021/05/13 02:02:03;;;;;;;4.80;4.33;;;8.30;99.90;;;;;;5015384;28;20592;-87
2021/05/13 02:04:30;;;;;;;4.70;4.00;;;8.30;99.90;;;;;;5017964;28;20259;-87
2021/05/13 02:06:56;;;;;;;5.10;3.87;;;8.30;99.90;;;;;;5020507;28;20234;-86
2021/05/13 02:09:22;;;;;;;5.33;4.37;;;8.30;99.90;;;;;;5008318;28;20187;-87
2021/05/13 02:11:47;;;;;;;4.20;3.80;;;8.30;99.90;;;;;;5019144;28;20329;-87
2021/05/13 02:14:14;;;;;;;4.40;4.00;;;8.30;99.90;;;;;;5017463;28;20645;-87
2021/05/13 02:16:40;;;;;;;5.47;4.83;;;8.30;99.90;;;;;;5033296;28;20197;-87
2021/05/13 02:19:05;;;;;;;7.53;4.73;;;8.30;99.90;;;;;;5011581;28;20201;-86
2021/05/13 02:21:31;;;;;;;6.20;5.40;;;8.20;99.90;;;;;;5012447;28;21133;-86
2021/05/13 02:23:57;;;;;;;6.73;4.30;;;8.30;99.90;;;;;;5015469;28;20194;-87
2021/05/13 02:26:22;;;;;;;5.10;4.53;;;8.30;99.90;;;;;;5021248;28;20683;-87
2021/05/13 02:28:48;;;;;;;4.67;4.17;;;8.20;99.90;;;;;;5017661;28;20263;-86
2021/05/13 02:31:14;;;;;;;5.57;4.97;;;8.20;99.90;;;;;;5019319;28;20605;-87
2021/05/13 02:33:41;;;;;;;5.23;4.73;;;8.20;99.90;;;;;;5032198;28;20191;-87
2021/05/13 02:36:08;;;;;;;4.83;4.33;;;8.10;99.90;;;;;;5012258;28;20191;-87
2021/05/13 02:38:34;;;;;;;4.37;3.97;;;8.10;99.90;;;;;;5018226;28;20277;-87
2021/05/13 02:41:00;;;;;;;5.03;4.17;;;8.10;99.90;;;;;;5016741;28;20282;-87
2021/05/13 02:43:25;;;;;;;4.33;3.77;;;8.20;99.90;;;;;;5021284;28;20191;-87
2021/05/13 02:45:51;;;;;;;4.80;4.30;;;;;;;;;;5017174;28;20191;-86
2021/05/13 02:48:17;;;;;;;5.70;3.97;;;8.10;99.90;;;;;;5032749;28;20226;-86
2021/05/13 02:50:43;;;;;;;5.27;4.77;;;8.20;99.90;;;;;;5015666;28;20238;-87
2021/05/13 02:53:09;;;;;;;4.53;4.13;;;8.10;99.90;;;;;;5019195;28;20263;-87
2021/05/13 02:55:34;;;;;;;4.87;4.37;;;8.20;99.90;;;;;;5018823;28;20385;-87
2021/05/13 02:58:01;;;;;;;4.90;4.20;;;8.10;99.90;;;;;;5018430;28;20199;-87
2021/05/13 03:00:49;;;;;;;4.23;3.70;;;8.20;99.90;;;;;;5008886;28;20572;-87
2021/05/13 03:03:14;;;;;;;6.20;4.80;;;8.10;99.90;;;;;;5014896;28;20179;-87
2021/05/13 03:05:40;;;;;;;5.77;4.77;;;8.10;99.90;;;;;;5014946;28;20206;-88
2021/05/13 03:08:06;;;;;;;5.73;5.20;;;8.10;99.90;;;;;;5016529;28;20687;-87
2021/05/13 03:13:02;;;;;;;5.73;5.10;;;8.10;99.90;;;;;;5035047;28;20187;-87
2021/05/13 03:15:29;;;;;;;6.70;5.50;;;8.10;99.90;;;;;;5016244;28;20241;-86
2021/05/13 03:17:54;;;;;;;7.60;5.87;;;8.40;99.90;;;;;;5034934;28;20180;-86
2021/05/13 03:20:26;;;;;;;6.60;5.90;;;8.00;99.90;;;;;;5030539;28;20306;-86
2021/05/13 03:22:56;;;;;;;6.40;5.30;;;8.00;99.90;;;;;;5009972;28;20214;-86
2021/05/13 03:25:29;;;;;;;8.50;5.50;;;8.00;99.90;;;;;;5014228;28;20576;-86
2021/05/13 03:27:56;;;;;;;5.83;5.17;;;8.60;99.90;;;;;;5017412;28;20223;-86
2021/05/13 03:30:24;;;;;;;9.50;5.77;;;8.20;99.90;;;;;;5030534;28;20180;-86
2021/05/13 03:32:51;;;;;;;8.27;6.07;;;8.10;99.90;;;;;;5014534;28;20180;-86
2021/05/13 03:35:17;;;;;;;7.37;5.87;;;8.20;99.90;;;;;;5017973;28;20233;-86
2021/05/13 03:37:43;;;;;;;7.50;6.50;;;8.30;99.90;;;;;;5019093;28;20195;-86
2021/05/13 03:40:10;;;;;;;7.00;6.30;;;8.20;99.90;;;;;;5017683;28;20189;-86
2021/05/13 03:42:35;;;;;;;6.63;5.80;;;8.20;99.90;;;;;;5012796;28;20543;-86
2021/05/13 03:45:01;;;;;;;8.30;6.80;;;8.10;99.90;;;;;;5020169;28;20198;-86
2021/05/13 03:47:26;;;;;;;6.90;6.20;;;8.00;99.90;;;;;;5015304;28;20210;-86
2021/05/13 03:49:52;;;;;;;7.93;5.90;;;8.00;99.90;;;;;;5015731;28;20608;-86
2021/05/13 03:52:18;;;;;;;8.37;6.37;;;8.10;99.90;;;;;;5016712;28;20183;-85
2021/05/13 03:54:43;;;;;;;7.20;6.23;;;8.00;99.90;;;;;;5017070;28;20648;-86
2021/05/13 03:57:10;;;;;;;7.83;5.63;;;8.00;99.90;;;;;;5018379;28;21158;-86
2021/05/13 03:59:42;;;;;;;5.70;5.10;;;8.00;99.90;;;;;;5016744;28;20188;-86
2021/05/13 04:04:52;;;;;;;7.53;6.27;;;8.00;99.90;;;;;;5032769;28;20678;-86
2021/05/13 04:07:17;;;;;;;6.70;5.30;;;8.10;99.90;;;;;;5017369;28;20231;-86
2021/05/13 04:09:43;;;;;;;6.73;6.03;;;8.10;99.90;;;;;;5019968;28;20245;-86
2021/05/13 04:12:09;;;;;;;7.10;5.37;;;8.10;99.90;;;;;;5019062;28;20184;-86
2021/05/13 04:14:35;;;;;;;6.77;5.37;;;8.20;99.90;;;;;;5014830;28;20608;-86
2021/05/13 04:17:05;;;;;;;6.80;5.73;;;8.30;99.90;;;;;;5042236;28;20187;-85
2021/05/13 04:19:31;;;;;;;5.40;4.90;;;8.40;99.90;;;;;;5023855;28;20277;-86
2021/05/13 04:21:56;;;;;;;6.40;5.40;;;8.40;99.90;;;;;;5021326;28;20215;-86
2021/05/13 04:24:22;;;;;;;9.13;6.13;;;8.50;99.90;;;;;;5020727;28;20187;-85
2021/05/13 04:26:48;;;;;;;9.20;6.80;;;8.50;99.90;;;;;;5021493;28;20212;-85
2021/05/13 04:29:13;;;;;;;8.43;6.83;;;8.60;99.90;;;;;;5032739;28;20567;-86
2021/05/13 04:31:39;;;;;;;10.73;7.67;;;8.60;99.90;;;;;;5019884;28;20188;-86
2021/05/13 04:34:05;;;;;;;11.93;8.13;;;8.70;99.90;;;;;;5024462;28;20605;-85
2021/05/13 04:36:31;;;;;;;12.00;8.30;;;8.80;99.90;;;;;;5025603;28;20597;-85
2021/05/13 04:38:57;;;;;;;9.63;7.87;;;8.90;99.90;;;;;;5029722;28;20306;-86
2021/05/13 04:41:25;;;;;;;10.70;7.80;;;9.00;99.90;;;;;;5019484;28;20208;-86
2021/05/13 04:43:50;;;;;;;9.47;7.73;;;9.10;99.90;;;;;;5019200;28;20195;-86
2021/05/13 04:46:17;;;;;;;10.87;8.07;;;9.10;99.90;;;;;;5024824;28;20210;-86
2021/05/13 04:51:19;;;;;;;13.57;9.53;;;9.30;99.90;;;;;;5036560;28;20192;-85
2021/05/13 04:53:47;;;;;;;12.20;8.97;;;9.30;99.90;;;;;;5021666;28;20588;-86
2021/05/13 04:56:13;;;;;;;11.27;9.00;;;9.30;99.90;;;;;;5030855;28;20184;-86
2021/05/13 04:58:39;;;;;;;11.73;8.63;;;9.40;99.90;;;;;;5023400;28;20246;-86
2021/05/13 05:01:04;;;;;;;10.80;8.83;;;9.50;99.90;;;;;;5020799;28;20187;-86
2021/05/13 05:03:30;;;;;;;10.23;8.23;;;9.70;99.90;;;;;;5018585;28;20194;-86
2021/05/13 05:05:55;;;;;;;10.83;8.33;;;9.60;99.90;;;;;;5033162;28;20191;-86
2021/05/13 05:08:21;;;;;;;9.80;8.67;;;9.70;99.90;;;;;;5020011;28;20228;-86
2021/05/13 05:10:46;;;;;;;10.43;7.73;;;9.70;99.90;;;;;;5018962;28;20183;-86
2021/05/13 05:13:12;;;;;;;10.97;8.33;;;9.80;99.90;;;;;;5013719;28;20217;-85
2021/05/13 05:15:38;;;;;;;10.83;9.50;;;9.80;99.90;;;;;;5019998;28;20609;-85
2021/05/13 05:18:04;;;;;;;10.87;9.53;;;10.00;99.90;;;;;;5020759;28;20190;-85
2021/05/13 05:20:29;;;;;;;11.70;8.70;;;10.10;99.90;;;;;;5020753;28;20181;-86
2021/05/13 05:22:55;;;;;;;13.23;8.40;;;10.20;99.90;;;;;;5017424;28;20197;-86
2021/05/13 05:25:20;;;;;;;11.23;8.33;;;10.20;99.90;;;;;;5020384;28;20571;-86
2021/05/13 05:27:46;;;;;;;9.50;7.93;;;10.30;99.90;;;;;;5025214;28;20218;-86
2021/05/13 05:30:12;;;;;;;10.20;8.43;;;10.20;98.80;;;;;;5019325;28;20201;-86
2021/05/13 05:32:38;;;;;;;12.27;8.77;;;10.20;99.10;;;;;;5024439;28;20191;-86
2021/05/13 05:35:05;;;;;;;13.30;10.20;;;10.10;99.30;;;;;;5028096;28;20193;-86
2021/05/13 05:37:33;;;;;;;11.13;8.87;;;10.10;99.50;;;;;;5016325;28;20995;-85
2021/05/13 05:40:02;;;;;;;13.97;8.73;;;9.30;99.90;;;;;;5033153;28;20609;-85
2021/05/13 05:42:28;;;;;;;11.63;8.83;;;10.30;99.90;;;;;;5019316;28;20175;-86
2021/05/13 05:44:54;;;;;;;12.00;9.10;;;10.50;99.90;;;;;;5039312;28;22446;-86
2021/05/13 05:47:20;;;;;;;15.60;9.27;;;10.60;99.20;;;;;;5021418;28;20218;-86
2021/05/13 05:49:45;;;;;;;18.37;9.20;;;10.60;97.70;;;;;;5019331;28;20242;-86
2021/05/13 05:52:12;;;;;;;10.70;9.00;;;10.60;98.10;;;;;;5037799;28;20195;-85
2021/05/13 05:54:37;;;;;;;17.63;9.30;;;10.70;97.60;;;;;;5016997;28;20327;-85
2021/05/13 05:57:03;;;;;;;12.43;9.77;;;10.90;97.90;;;;;;5018466;28;20302;-85
2021/05/13 05:59:29;;;;;;;11.77;8.80;;;10.90;96.80;;;;;;5035783;28;20183;-85
2021/05/13 06:01:55;;;;;;;13.23;9.70;;;11.00;96.10;;;;;;5018364;28;20374;-85
2021/05/13 06:04:21;;;;;;;14.27;10.90;;;10.90;97.00;;;;;;5016407;28;20194;-85
2021/05/13 06:06:46;;;;;;;15.70;11.45;;;11.00;96.20;;;;;;5021732;28;20437;-84
2021/05/13 06:09:12;;;;;;;15.67;9.90;;;11.00;96.30;;;;;;5029894;28;20266;-83
2021/05/13 06:11:38;;;;;;;14.90;10.27;;;11.10;97.50;;;;;;5017649;28;20183;-86
2021/05/13 06:14:04;;;;;;;14.20;9.60;;;11.40;97.50;;;;;;5022130;28;20194;-86
2021/05/13 06:16:30;;;;;;;12.80;10.47;;;11.60;95.70;;;;;;5021935;28;20183;-85
2021/05/13 06:18:58;;;;;;;11.73;9.60;;;11.60;93.30;;;;;;5031947;28;20198;-86
2021/05/13 06:21:24;;;;;;;12.87;9.53;;;;;;;;;;5018006;28;20647;-85
2021/05/13 06:23:55;;;;;;;13.17;10.20;;;11.90;92.80;;;;;;5021941;28;20188;-85
2021/05/13 06:26:25;;;;;;;14.13;9.40;;;11.90;93.10;;;;;;5019036;28;20202;-86
2021/05/13 06:28:51;;;;;;;15.47;10.63;;;;;;;;;;5020648;28;20221;-85
2021/05/13 06:31:17;;;;;;;11.87;10.40;;;12.00;92.00;;;;;;5014601;28;20261;-86
2021/05/13 06:33:44;;;;;;;12.93;9.83;;;12.10;92.00;;;;;;5019078;28;20183;-85
2021/05/13 06:36:10;;;;;;;17.47;11.23;;;;;;;;;;5016232;28;20191;-85
2021/05/13 06:38:36;;;;;;;16.10;11.20;;;11.90;92.30;;;;;;5011954;28;20191;-85
2021/05/13 06:41:02;;;;;;;16.47;11.33;;;12.00;91.60;;;;;;5006016;28;20191;-86
2021/05/13 06:43:28;;;;;;;17.43;12.27;;;12.10;92.00;;;;;;5041184;28;20233;-85
2021/05/13 06:45:54;;;;;;;13.97;10.80;;;12.20;91.50;;;;;;5015829;28;20248;-85
2021/05/13 06:48:20;;;;;;;14.87;10.97;;;12.30;91.10;;;;;;5019186;28;20249;-85
2021/05/13 06:50:45;;;;;;;14.43;11.60;;;12.50;89.80;;;;;;5019329;28;20265;-84
2021/05/13 06:53:11;;;;;;;14.33;12.03;;;12.50;88.30;;;;;;5020996;28;20190;-85
2021/05/13 06:55:37;;;;;;;17.10;11.57;;;12.70;90.40;;;;;;5019271;28;20192;-85
2021/05/13 06:58:03;;;;;;;13.07;10.33;;;13.10;88.80;;;;;;5019378;28;20638;-85
2021/05/13 07:00:29;;;;;;;13.00;10.03;;;13.40;88.20;;;;;;5021769;28;20179;-84
2021/05/13 07:02:55;;;;;;;13.43;10.90;;;13.70;83.40;;;;;;5018488;28;20191;-84
2021/05/13 07:05:20;;;;;;;18.17;11.93;;;13.50;81.90;;;;;;5022362;28;20187;-82
2021/05/13 07:07:46;;;;;;;11.80;10.53;;;13.60;84.70;;;;;;5024076;28;20246;-82
2021/05/13 07:10:11;;;;;;;14.03;12.30;;;13.70;83.60;;;;;;5020253;28;20237;-81
2021/05/13 07:12:38;;;;;;;16.90;11.33;;;13.60;82.10;;;;;;5036960;28;20275;-82
2021/05/13 07:15:05;;;;;;;14.13;11.47;;;13.60;81.50;;;;;;5024916;28;20184;-82
2021/05/13 07:17:30;;;;;;;15.60;10.90;;;13.60;83.80;;;;;;5025450;28;20207;-82
2021/05/13 07:19:56;;;;;;;14.37;11.30;;;13.70;83.90;;;;;;5034051;28;20199;-81
2021/05/13 07:22:22;;;;;;;14.97;11.27;;;13.90;82.60;;;;;;5031443;28;20195;-82
2021/05/13 07:24:50;;;;;;;15.70;12.87;;;13.80;82.80;;;;;;5021428;28;20203;-82
2021/05/13 07:27:17;;;;;;;14.10;12.60;;;13.90;84.10;;;;;;5027297;28;20219;-82
2021/05/13 07:29:42;;;;;;;13.37;10.37;;;14.10;83.90;;;;;;5018586;28;20250;-83
2021/05/13 07:32:08;;;;;;;12.47;11.10;;;14.10;84.30;;;;;;5024682;28;20179;-83
2021/05/13 07:34:34;;;;;;;12.37;11.07;;;14.10;79.50;;;;;;5020154;28;20180;-84
2021/05/13 07:37:02;;;;;;;13.30;11.57;;;14.10;80.40;;;;;;5019285;28;20219;-84
2021/05/13 07:39:28;;;;;;;13.40;11.23;;;;;;;;;;5018868;28;20258;-83
2021/05/13 07:41:54;;;;;;;15.57;11.47;;;14.30;80.90;;;;;;5019796;28;20191;-83
2021/05/13 07:44:20;;;;;;;13.90;11.33;;;14.70;80.60;;;;;;5022401;28;20683;-83
2021/05/13 07:46:47;;;;;;;12.53;10.83;;;14.90;78.90;;;;;;5024529;28;20316;-83
2021/05/13 07:49:12;;;;;;;15.10;11.40;;;15.20;78.60;;;;;;5024766;28;20184;-84
2021/05/13 07:51:41;;;;;;;12.23;10.97;;;15.20;77.10;;;;;;5023999;28;20213;-83
2021/05/13 07:54:07;;;;;;;14.43;11.73;;;15.10;76.90;;;;;;5021942;28;20203;-83
2021/05/13 07:56:32;;;;;;;13.10;10.97;;;15.10;76.90;;;;;;5024863;28;20233;-83
2021/05/13 07:58:58;;;;;;;14.30;12.17;;;14.90;76.70;;;;;;5020240;28;20646;-85
2021/05/13 08:01:23;;;;;;;19.00;12.83;;;15.00;77.90;;;;;;5021639;28;20210;-83
2021/05/13 08:03:49;;;;;;;15.17;12.80;;;14.80;76.10;;;;;;5020034;28;20188;-82
2021/05/13 08:06:15;;;;;;;17.40;13.00;;;14.80;79.30;;;;;;5023881;28;20316;-81
2021/05/13 08:08:41;;;;;;;18.47;14.07;;;14.90;78.70;;;;;;5022819;28;20224;-82
2021/05/13 08:11:07;;;;;;;18.80;13.33;;;;;;;;;;5023437;28;20196;-82
2021/05/13 08:13:33;;;;;;;16.57;13.20;;;;;;;;;;5026131;28;20218;-82
2021/05/13 08:15:58;;;;;;;19.57;14.53;;;15.50;76.70;;;;;;5018890;28;20184;-82
2021/05/13 08:18:24;;;;;;;20.97;14.93;;;15.50;76.80;;;;;;5023929;28;20223;-82
2021/05/13 08:20:50;;;;;;;20.80;14.50;;;15.70;75.60;;;;;;5019265;28;20200;-83
2021/05/13 08:23:16;;;;;;;18.07;14.00;;;15.70;72.90;;;;;;5017935;28;20210;-84
2021/05/13 08:25:42;;;;;;;22.93;14.57;;;15.70;75.20;;;;;;5021161;28;20194;-84
2021/05/13 08:28:08;;;;;;;21.43;14.80;;;15.70;75.50;;;;;;5025428;28;20250;-87
2021/05/13 08:30:34;;;;;;;21.40;13.57;;;15.60;75.60;;;;;;5025271;28;20239;-83
2021/05/13 08:33:01;;;;;;;25.13;13.60;;;15.70;74.60;;;;;;5026987;28;20197;-85
2021/05/13 08:35:26;;;;;;;18.23;11.97;;;15.70;73.40;;;;;;5023357;28;20203;-85
2021/05/13 08:37:52;;;;;;;18.33;12.40;;;15.90;74.40;;;;;;5030003;28;20192;-84
2021/05/13 08:40:18;;;;;;;18.30;10.60;;;16.10;72.90;;;;;;5023077;28;20612;-85
2021/05/13 08:42:44;;;;;;;15.33;10.00;;;16.20;69.90;;;;;;5022838;28;20192;-85
2021/05/13 08:45:10;;;;;;;15.30;11.13;;;16.10;71.80;;;;;;5024128;28;20190;-85
2021/05/13 08:47:45;;;;;;;12.47;10.43;;;16.40;70.70;;;;;;5019900;28;20222;-84
2021/05/13 08:50:11;;;;;;;16.27;10.73;;;;;;;;;;5008761;28;20206;-84
2021/05/13 08:52:38;;;;;;;16.63;10.40;;;;;;;;;;5038653;28;20200;-83
2021/05/13 08:55:05;;;;;;;13.10;9.77;;;16.50;71.20;;;;;;5025205;28;20200;-84
2021/05/13 08:57:31;;;;;;;14.50;8.83;;;16.70;71.70;;;;;;5027256;28;20209;-85
2021/05/13 08:59:57;;;;;;;13.43;9.37;;;16.80;69.20;;;;;;5023811;28;20192;-85
2021/05/13 09:02:29;;;;;;;14.90;9.57;;;16.90;69.50;;;;;;5026414;28;20189;-84
2021/05/13 09:04:56;;;;;;;11.37;9.23;;;16.70;69.30;;;;;;5011241;28;20194;-85
2021/05/13 09:07:28;;;;;;;11.37;8.13;;;16.70;68.80;;;;;;5040572;28;20273;-85
2021/05/13 09:10:08;;;;;;;13.87;9.27;;;16.80;69.90;;;;;;5019017;28;20286;-83
2021/05/13 09:12:37;;;;;;;13.93;9.53;;;16.90;68.40;;;;;;5039426;28;20226;-83
2021/05/13 09:15:14;;;;;;;12.63;9.87;;;17.00;68.30;;;;;;5026569;28;20189;-84
2021/05/13 09:17:42;;;;;;;15.63;8.80;;;16.80;68.30;;;;;;5020963;28;20184;-83
2021/05/13 09:20:36;;;;;;;8.33;6.20;;;16.80;69.90;;;;;;5027329;28;20192;-83
2021/05/13 09:23:26;;;;;;;10.13;7.50;;;17.00;66.20;;;;;;5027463;28;20208;-83
2021/05/13 09:26:12;;;;;;;9.90;6.90;;;17.10;67.10;;;;;;5045369;28;20247;-83
2021/05/13 09:28:41;;;;;;;11.17;6.87;;;17.40;66.00;;;;;;5022503;28;20232;-83
2021/05/13 09:31:07;;;;;;;6.73;6.00;;;17.60;64.50;;;;;;5025866;28;20194;-83
2021/05/13 09:33:43;;;;;;;7.97;6.03;;;17.70;61.90;;;;;;5024871;28;20194;-83
2021/05/13 09:36:39;;;;;;;8.60;6.43;;;17.70;61.90;;;;;;5028181;28;20320;-83
2021/05/13 09:39:24;;;;;;;5.73;4.13;;;17.70;59.40;;;;;;5034674;28;20206;-83
2021/05/13 09:42:01;;;;;;;8.17;3.90;;;17.60;52.50;;;;;;5022220;28;20671;-83
2021/05/13 09:44:38;;;;;;;6.93;4.60;;;17.70;53.70;;;;;;5021700;28;20188;-84
2021/05/13 09:47:20;;;;;;;7.53;3.47;;;17.90;53.70;;;;;;5019043;28;20223;-83
2021/05/13 09:49:53;;;;;;;4.17;3.53;;;17.80;53.30;;;;;;5034446;28;20220;-83
2021/05/13 09:52:48;;;;;;;5.10;3.97;;;18.00;53.40;;;;;;5043521;28;20193;-83
2021/05/13 09:55:21;;;;;;;6.83;3.20;;;18.20;53.40;;;;;;5023072;28;20197;-83
2021/05/13 09:58:07;;;;;;;4.23;3.77;;;18.20;51.20;;;;;;5018775;28;20258;-83
2021/05/13 10:00:47;;;;;;;5.63;3.73;;;18.20;50.80;;;;;;5028466;28;20195;-83
2021/05/13 10:03:24;;;;;;;5.53;3.37;;;18.30;51.70;;;;;;5047643;28;20187;-83
2021/05/13 10:05:54;;;;;;;4.20;2.07;;;18.40;43.60;;;;;;5031299;28;20187;-83
2021/05/13 10:08:20;;;;;;;3.20;2.33;;;18.40;43.70;;;;;;5024569;28;20234;-83
2021/05/13 10:10:47;;;;;;;3.07;2.30;;;18.40;43.20;;;;;;5026446;28;20191;-83
2021/05/13 10:13:16;;;;;;;3.67;1.87;;;18.50;41.50;;;;;;5029176;28;20195;-83
2021/05/13 10:15:42;;;;;;;3.13;1.73;;;18.70;42.40;;;;;;5019086;28;20184;-84
2021/05/13 10:18:36;;;;;;;5.97;2.60;;;18.60;43.60;;;;;;5026505;28;20669;-82
2021/05/13 10:21:20;;;;;;;5.60;2.20;;;18.60;43.50;;;;;;5027535;28;20191;-83
2021/05/13 10:23:47;;;;;;;2.67;1.23;;;18.70;42.30;;;;;;5043639;28;20195;-83
2021/05/13 10:26:40;;;;;;;3.20;1.40;;;18.80;37.60;;;;;;5023700;28;20198;-83
2021/05/13 10:29:33;;;;;;;1.23;0.90;;;18.90;36.70;;;;;;5030671;28;20314;-83
2021/05/13 10:34:40;;;;;;;3.93;1.90;;;19.30;37.50;;;;;;5043327;28;20183;-82
2021/05/13 10:37:17;;;;;;;2.80;1.90;;;19.30;38.90;;;;;;5019548;28;20202;-82
2021/05/13 10:40:14;;;;;;;5.10;2.17;;;19.40;36.90;;;;;;5022872;28;20610;-82
2021/05/13 10:42:41;;;;;;;2.20;1.53;;;19.40;37.50;;;;;;5017234;28;20222;-84
2021/05/13 10:45:25;;;;;;;2.30;1.90;;;19.60;36.70;;;;;;5023665;28;20674;-82
2021/05/13 10:48:10;;;;;;;1.90;1.50;;;19.70;36.80;;;;;;5042188;28;20217;-82
2021/05/13 10:50:41;;;;;;;2.07;1.60;;;19.80;36.30;;;;;;5018876;28;20253;-82
2021/05/13 10:56:28;;;;;;;2.83;2.13;;;20.20;37.30;;;;;;5046260;28;20184;-82
2021/05/13 10:59:10;;;;;;;2.17;1.60;;;20.10;35.00;;;;;;5025894;28;20444;-84
2021/05/13 11:01:46;;;;;;;4.27;1.43;;;20.20;35.20;;;;;;5023882;28;20217;-82
2021/05/13 11:04:21;;;;;;;3.23;1.87;;;20.60;33.30;;;;;;5023713;28;20221;-82
2021/05/13 11:07:00;;;;;;;2.03;1.37;;;20.40;29.40;;;;;;5029601;28;20200;-82
2021/05/13 11:09:55;;;;;;;2.37;1.63;;;20.50;30.00;;;;;;5024300;28;20660;-82
2021/05/13 11:12:23;;;;;;;2.80;1.67;;;20.50;31.60;;;;;;5027387;28;20585;-82
2021/05/13 11:20:22;;;;;;;3.03;2.17;;;21.00;34.90;;;;;;5046205;28;20191;-82
2021/05/13 11:22:56;;;;;;;3.07;2.10;;;20.80;33.80;;;;;;5046402;28;20190;-82
2021/05/13 11:25:23;;;;;;;2.93;1.97;;;21.00;34.70;;;;;;5027834;28;20198;-83
2021/05/13 11:27:48;;;;;;;2.70;1.90;;;21.50;33.30;;;;;;5026294;28;20233;-83
2021/05/13 11:30:15;;;;;;;3.20;1.73;;;21.70;32.90;;;;;;5030739;28;20261;-83
2021/05/13 11:32:41;;;;;;;2.23;1.50;;;21.90;31.70;;;;;;5024264;28;20199;-83
2021/05/13 11:35:08;;;;;;;2.47;1.73;;;22.60;34.30;;;;;;5025953;28;20337;-83
2021/05/13 11:37:39;;;;;;;2.90;1.37;;;23.10;30.40;;;;;;5034800;28;20216;-83
2021/05/13 11:40:38;;;;;;;2.33;1.80;;;23.90;30.00;;;;;;5027075;28;20190;-83
2021/05/13 11:43:22;;;;;;;1.60;1.30;;;24.90;29.30;;;;;;5006487;28;20210;-84
2021/05/13 11:45:50;;;;;;;3.42;1.67;;;25.40;29.80;;;;;;5024998;28;20274;-84
2021/05/13 11:48:31;;;;;;;2.53;1.35;;;25.80;28.20;;;;;;5025563;28;20214;-83
2021/05/13 11:51:00;;;;;;;2.78;1.60;;;25.20;28.10;;;;;;5042489;28;20198;-83
2021/05/13 11:53:26;;;;;;;2.33;1.30;;;24.70;28.80;;;;;;5041329;28;20187;-83
2021/05/13 11:55:52;;;;;;;3.28;1.38;;;23.40;30.10;;;;;;5025309;28;20223;-84
2021/05/13 11:58:33;;;;;;;3.42;1.23;;;23.20;30.40;;;;;;5010312;28;20245;-84
2021/05/13 12:01:24;;;;;;;3.53;1.70;;;22.80;30.70;;;;;;5016743;28;20196;-82
2021/05/13 12:04:03;;;;;;;2.47;2.00;;;22.10;31.80;;;;;;5021405;28;20186;-84
2021/05/13 12:06:59;;;;;;;4.27;1.67;;;21.70;33.90;;;;;;5021109;28;20891;-84
2021/05/13 12:09:26;;;;;;;3.57;1.83;;;21.70;31.60;;;;;;5031795;28;20344;-84
2021/05/13 12:11:53;;;;;;;1.67;1.20;;;21.60;32.90;;;;;;5020545;28;20622;-84
2021/05/13 12:14:24;;;;;;;1.30;1.20;;;21.80;34.50;;;;;;5036747;28;20195;-85
2021/05/13 12:16:55;;;;;;;2.35;1.23;;;23.20;30.50;;;;;;5023337;28;20201;-84
2021/05/13 12:19:21;;;;;;;2.10;1.35;;;23.00;30.30;;;;;;5026444;28;20190;-83
2021/05/13 12:21:55;;;;;;;4.13;1.73;;;23.20;31.60;;;;;;5025006;28;20193;-82
2021/05/13 12:24:30;;;;;;;3.28;2.53;;;24.00;31.20;;;;;;5024678;28;20201;-83
2021/05/13 12:26:56;;;;;;;1.92;1.13;;;25.00;29.00;;;;;;5017987;28;20182;-83
2021/05/13 12:29:22;;;;;;;2.30;1.75;;;25.80;27.80;;;;;;5020568;28;20562;-83
2021/05/13 12:31:48;;;;;;;2.10;1.30;;;26.20;28.00;;;;;;5045817;28;20244;-83
2021/05/13 12:34:32;;;;;;;2.15;1.10;;;27.20;27.20;;;;;;5023336;28;20778;-81
2021/05/13 12:36:58;;;;;;;2.67;1.17;;;26.00;27.30;;;;;;5019469;28;20190;-82
2021/05/13 12:39:38;;;;;;;2.15;1.58;;;26.20;27.80;;;;;;5032473;28;20199;-81
2021/05/13 12:42:31;;;;;;;2.08;1.40;;;26.00;27.50;;;;;;5040428;28;20183;-81
2021/05/13 12:45:12;;;;;;;3.33;1.58;;;26.00;28.40;;;;;;5036294;28;20238;-83
2021/05/13 12:47:37;;;;;;;2.55;1.67;;;26.00;27.60;;;;;;5026490;28;20215;-80
2021/05/13 12:50:04;;;;;;;2.20;1.55;;;26.40;27.00;;;;;;5021877;28;20214;-80
2021/05/13 12:52:30;;;;;;;3.05;1.92;;;25.70;27.70;;;;;;5027058;28;20205;-80
2021/05/13 12:55:18;;;;;;;3.83;1.55;;;24.40;29.10;;;;;;5026575;28;20190;-80
2021/05/13 12:57:46;;;;;;;2.90;1.80;;;23.40;29.70;;;;;;5025978;28;20269;-81
2021/05/13 13:00:14;;;;;;;2.10;1.58;;;23.10;29.90;;;;;;5031423;28;20191;-82
2021/05/13 13:02:40;;;;;;;2.55;1.42;;;22.70;30.60;;;;;;5024039;28;20209;-81
2021/05/13 13:05:08;;;;;;;4.30;1.80;;;22.40;30.90;;;;;;5030205;28;20201;-82
2021/05/13 13:07:47;;;;;;;4.47;2.05;;;22.20;30.40;;;;;;5026587;28;20227;-87
2021/05/13 13:10:32;;;;;;;6.73;2.00;;;22.40;31.00;;;;;;5026006;28;20206;-86
2021/05/13 13:13:02;;;;;;;3.37;1.73;;;22.50;30.00;;;;;;5037088;28;20185;-85
2021/05/13 13:15:40;;;;;;;4.27;1.67;;;22.50;30.30;;;;;;5042329;28;20218;-85
2021/05/13 13:18:08;;;;;;;2.63;1.80;;;23.30;30.00;;;;;;5024277;28;20188;-85
2021/05/13 13:20:35;;;;;;;1.83;1.30;;;23.30;30.50;;;;;;5025620;28;20647;-85